Chicago Bridge — H9NR — position and weather

sailwx.info

Track history (hours):
 
Tides and Currents Weather Stations Pressure Air Temp Water Temp Dewpoint Dewpoint Depression Visibility Wind Speed Wind Dir Waves Ship Positions

Chicago Bridge

Last reported at 2015-Aug-01 04:33 UTC. Time now 2015-Aug-01 05:44 UTC.
Position N 37°28' W 125°50'.

Length 279 m; draft 12.4 m.

Type: Ship (hazmat cat B). MMSI: 352018000.

Date/timePositionNaut miles runAvg speedWind from/ knotsBaromVisibWave heightAir tempDewpointWater temp
2015-Aug-01 04:33N 37°28' W 125°50'1818.1
2015-Aug-01 03:33N 37°38' W 126°09'1818.1
2015-Aug-01 02:33N 37°48' W 126°28'1818.1
2015-Aug-01 01:33N 37°59' W 126°46'1918.6
2015-Aug-01 00:33N 38°10' W 127°05'2118.5
2015-Jul-31 23:26N 38°22' W 127°27'1819.0
2015-Jul-31 22:30N 38°32' W 127°45'1919.4
2015-Jul-31 21:33N 38°43' W 128°04'3818.8
2015-Jul-31 19:32N 39°04' W 128°45'1717.4
2015-Jul-31 18:33N 39°13' W 129°04'1817.8
2015-Jul-31 17:33N 39°22' W 129°24'1918.2
2015-Jul-31 16:31N 39°32' W 129°44'2618.2
2015-Jul-31 15:05N 39°46' W 130°13'2918.1
2015-Jul-31 13:29N 40°01' W 130°45'3518.2
2015-Jul-31 11:33N 40°20' W 131°24'7718.4
2015-Jul-31 07:23N 41°00' W 132°50'  
Track history (hours):
 
Tides and Currents Weather Stations Pressure Air Temp Water Temp Dewpoint Dewpoint Depression Visibility Wind Speed Wind Dir Waves Ship Positions

Chicago Bridge

Last reported at 2015-Aug-01 04:33 UTC. Time now 2015-Aug-01 05:44 UTC.
Position N 37°28' W 125°50'.

Length 279 m; draft 12.4 m.

Type: Ship (hazmat cat B). MMSI: 352018000.

Date/timePositionNaut miles runAvg speedWind from/ knotsBaromVisibWave heightAir tempDewpointWater temp
2015-Aug-01 04:33N 37°28' W 125°50'1818.1
2015-Aug-01 03:33N 37°38' W 126°09'1818.1
2015-Aug-01 02:33N 37°48' W 126°28'1818.1
2015-Aug-01 01:33N 37°59' W 126°46'1918.6
2015-Aug-01 00:33N 38°10' W 127°05'2118.5
2015-Jul-31 23:26N 38°22' W 127°27'1819.0
2015-Jul-31 22:30N 38°32' W 127°45'1919.4
2015-Jul-31 21:33N 38°43' W 128°04'3818.8
2015-Jul-31 19:32N 39°04' W 128°45'1717.4
2015-Jul-31 18:33N 39°13' W 129°04'1817.8
2015-Jul-31 17:33N 39°22' W 129°24'1918.2
2015-Jul-31 16:31N 39°32' W 129°44'2618.2
2015-Jul-31 15:05N 39°46' W 130°13'2918.1
2015-Jul-31 13:29N 40°01' W 130°45'3518.2
2015-Jul-31 11:33N 40°20' W 131°24'7718.4
2015-Jul-31 07:23N 41°00' W 132°50'  

Dump ship's entire track history